sensor_id;sensor_type;location;lat;lon;timestamp;P1;durP1;ratioP1;P2;durP2;ratioP2
22711;SDS011;11523;50.390;8.072;2024-03-23T00:54:37;36.20;;;27.45;;
22711;SDS011;11523;50.390;8.072;2024-03-23T00:57:03;35.25;;;26.48;;
22711;SDS011;11523;50.390;8.072;2024-03-23T00:59:29;38.83;;;27.08;;
22711;SDS011;11523;50.390;8.072;2024-03-23T01:01:56;32.05;;;25.67;;
22711;SDS011;11523;50.390;8.072;2024-03-23T01:04:22;35.03;;;25.17;;
22711;SDS011;11523;50.390;8.072;2024-03-23T01:06:47;39.00;;;26.27;;
22711;SDS011;11523;50.390;8.072;2024-03-23T01:09:13;36.60;;;26.63;;
22711;SDS011;11523;50.390;8.072;2024-03-23T01:11:39;35.58;;;26.23;;
22711;SDS011;11523;50.390;8.072;2024-03-23T01:14:06;37.70;;;27.15;;
22711;SDS011;11523;50.390;8.072;2024-03-23T01:16:32;39.45;;;27.35;;
22711;SDS011;11523;50.390;8.072;2024-03-23T01:18:58;40.83;;;27.33;;
22711;SDS011;11523;50.390;8.072;2024-03-23T01:21:24;35.25;;;26.35;;
22711;SDS011;11523;50.390;8.072;2024-03-23T01:23:49;37.10;;;27.20;;
22711;SDS011;11523;50.390;8.072;2024-03-23T01:26:15;35.67;;;25.23;;
22711;SDS011;11523;50.390;8.072;2024-03-23T01:28:41;35.05;;;25.27;;
22711;SDS011;11523;50.390;8.072;2024-03-23T01:31:07;36.13;;;25.95;;
22711;SDS011;11523;50.390;8.072;2024-03-23T01:33:33;36.10;;;26.02;;
22711;SDS011;11523;50.390;8.072;2024-03-23T01:35:59;34.92;;;25.50;;
22711;SDS011;11523;50.390;8.072;2024-03-23T01:38:25;34.92;;;25.58;;
22711;SDS011;11523;50.390;8.072;2024-03-23T01:40:56;34.95;;;26.05;;
22711;SDS011;11523;50.390;8.072;2024-03-23T01:43:22;33.83;;;25.58;;
22711;SDS011;11523;50.390;8.072;2024-03-23T01:45:48;38.08;;;26.85;;
22711;SDS011;11523;50.390;8.072;2024-03-23T01:48:14;36.33;;;26.50;;
22711;SDS011;11523;50.390;8.072;2024-03-23T01:50:40;35.53;;;25.98;;
22711;SDS011;11523;50.390;8.072;2024-03-23T01:53:06;36.70;;;26.27;;
22711;SDS011;11523;50.390;8.072;2024-03-23T01:55:32;38.15;;;26.35;;
22711;SDS011;11523;50.390;8.072;2024-03-23T01:57:58;35.55;;;26.55;;
22711;SDS011;11523;50.390;8.072;2024-03-23T02:00:25;37.50;;;26.10;;
22711;SDS011;11523;50.390;8.072;2024-03-23T02:02:52;35.53;;;25.23;;
22711;SDS011;11523;50.390;8.072;2024-03-23T02:05:19;33.60;;;24.05;;
22711;SDS011;11523;50.390;8.072;2024-03-23T02:07:45;35.35;;;24.15;;
22711;SDS011;11523;50.390;8.072;2024-03-23T02:10:11;34.13;;;26.38;;
22711;SDS011;11523;50.390;8.072;2024-03-23T02:12:40;38.65;;;26.70;;
22711;SDS011;11523;50.390;8.072;2024-03-23T02:15:06;37.33;;;26.15;;
22711;SDS011;11523;50.390;8.072;2024-03-23T02:17:34;37.50;;;26.55;;
22711;SDS011;11523;50.390;8.072;2024-03-23T02:20:00;36.35;;;25.88;;
22711;SDS011;11523;50.390;8.072;2024-03-23T02:22:36;40.22;;;27.45;;
22711;SDS011;11523;50.390;8.072;2024-03-23T02:25:03;38.33;;;27.25;;
22711;SDS011;11523;50.390;8.072;2024-03-23T02:27:29;36.10;;;26.80;;
22711;SDS011;11523;50.390;8.072;2024-03-23T02:29:54;36.40;;;25.42;;
22711;SDS011;11523;50.390;8.072;2024-03-23T02:32:20;40.33;;;26.20;;
22711;SDS011;11523;50.390;8.072;2024-03-23T02:34:46;35.55;;;25.20;;
22711;SDS011;11523;50.390;8.072;2024-03-23T02:37:12;33.72;;;24.48;;
22711;SDS011;11523;50.390;8.072;2024-03-23T02:39:38;36.72;;;25.17;;
22711;SDS011;11523;50.390;8.072;2024-03-23T02:42:04;40.35;;;27.83;;
22711;SDS011;11523;50.390;8.072;2024-03-23T02:44:30;40.20;;;27.65;;
22711;SDS011;11523;50.390;8.072;2024-03-23T02:46:56;37.60;;;27.90;;
22711;SDS011;11523;50.390;8.072;2024-03-23T02:49:22;39.70;;;26.70;;
22711;SDS011;11523;50.390;8.072;2024-03-23T02:51:48;41.63;;;27.27;;
22711;SDS011;11523;50.390;8.072;2024-03-23T02:54:15;17.05;;;11.75;;
22711;SDS011;11523;50.390;8.072;2024-03-23T02:56:41;12.48;;;9.40;;
22711;SDS011;11523;50.390;8.072;2024-03-23T02:59:07;10.93;;;5.93;;
22711;SDS011;11523;50.390;8.072;2024-03-23T03:01:33;5.90;;;4.57;;
22711;SDS011;11523;50.390;8.072;2024-03-23T03:04:00;4.70;;;3.65;;
22711;SDS011;11523;50.390;8.072;2024-03-23T03:06:26;3.55;;;2.53;;
22711;SDS011;11523;50.390;8.072;2024-03-23T03:08:52;3.28;;;2.13;;
22711;SDS011;11523;50.390;8.072;2024-03-23T03:11:18;3.08;;;2.17;;
22711;SDS011;11523;50.390;8.072;2024-03-23T03:13:50;2.25;;;1.55;;
22711;SDS011;11523;50.390;8.072;2024-03-23T03:16:16;1.75;;;1.45;;
22711;SDS011;11523;50.390;8.072;2024-03-23T03:18:42;3.65;;;1.30;;
22711;SDS011;11523;50.390;8.072;2024-03-23T03:21:08;0.98;;;0.90;;
22711;SDS011;11523;50.390;8.072;2024-03-23T03:23:38;1.02;;;0.80;;
22711;SDS011;11523;50.390;8.072;2024-03-23T03:26:05;0.90;;;0.77;;
22711;SDS011;11523;50.390;8.072;2024-03-23T03:28:31;0.98;;;0.80;;
22711;SDS011;11523;50.390;8.072;2024-03-23T03:30:57;0.70;;;0.70;;
22711;SDS011;11523;50.390;8.072;2024-03-23T03:33:23;1.65;;;0.90;;
22711;SDS011;11523;50.390;8.072;2024-03-23T03:35:49;0.75;;;0.60;;
22711;SDS011;11523;50.390;8.072;2024-03-23T03:38:16;1.95;;;0.80;;
22711;SDS011;11523;50.390;8.072;2024-03-23T03:40:42;0.85;;;0.82;;
22711;SDS011;11523;50.390;8.072;2024-03-23T03:43:08;1.33;;;1.00;;
22711;SDS011;11523;50.390;8.072;2024-03-23T03:45:34;0.80;;;0.68;;
22711;SDS011;11523;50.390;8.072;2024-03-23T03:48:00;1.30;;;0.88;;
22711;SDS011;11523;50.390;8.072;2024-03-23T03:50:26;1.58;;;1.10;;
22711;SDS011;11523;50.390;8.072;2024-03-23T03:52:52;2.05;;;1.10;;
22711;SDS011;11523;50.390;8.072;2024-03-23T03:55:18;2.97;;;1.00;;
22711;SDS011;11523;50.390;8.072;2024-03-23T03:57:44;1.58;;;1.15;;
22711;SDS011;11523;50.390;8.072;2024-03-23T04:00:10;2.83;;;1.08;;
22711;SDS011;11523;50.390;8.072;2024-03-23T04:02:39;1.52;;;1.30;;
22711;SDS011;11523;50.390;8.072;2024-03-23T04:05:05;1.15;;;1.05;;
22711;SDS011;11523;50.390;8.072;2024-03-23T04:07:33;3.03;;;1.40;;
22711;SDS011;11523;50.390;8.072;2024-03-23T04:09:59;2.95;;;1.63;;
22711;SDS011;11523;50.390;8.072;2024-03-23T04:12:25;2.22;;;1.60;;
22711;SDS011;11523;50.390;8.072;2024-03-23T04:14:51;1.55;;;1.30;;
22711;SDS011;11523;50.390;8.072;2024-03-23T04:17:17;2.30;;;1.88;;
22711;SDS011;11523;50.390;8.072;2024-03-23T04:19:43;2.55;;;1.50;;
22711;SDS011;11523;50.390;8.072;2024-03-23T04:22:09;4.60;;;1.80;;
22711;SDS011;11523;50.390;8.072;2024-03-23T04:24:35;2.00;;;1.80;;
22711;SDS011;11523;50.390;8.072;2024-03-23T04:27:01;1.92;;;1.60;;
22711;SDS011;11523;50.390;8.072;2024-03-23T04:29:28;2.22;;;1.60;;
22711;SDS011;11523;50.390;8.072;2024-03-23T04:31:54;2.65;;;2.08;;
22711;SDS011;11523;50.390;8.072;2024-03-23T04:34:20;2.40;;;1.90;;
22711;SDS011;11523;50.390;8.072;2024-03-23T04:36:47;4.43;;;1.83;;
22711;SDS011;11523;50.390;8.072;2024-03-23T04:39:13;1.95;;;1.55;;
22711;SDS011;11523;50.390;8.072;2024-03-23T04:41:39;2.20;;;1.95;;
22711;SDS011;11523;50.390;8.072;2024-03-23T04:44:05;3.05;;;2.20;;
22711;SDS011;11523;50.390;8.072;2024-03-23T04:46:31;5.05;;;2.50;;
22711;SDS011;11523;50.390;8.072;2024-03-23T04:48:57;3.22;;;2.40;;
22711;SDS011;11523;50.390;8.072;2024-03-23T04:51:23;3.92;;;2.50;;
22711;SDS011;11523;50.390;8.072;2024-03-23T04:53:49;2.50;;;2.28;;
22711;SDS011;11523;50.390;8.072;2024-03-23T04:56:16;3.50;;;2.50;;
22711;SDS011;11523;50.390;8.072;2024-03-23T04:58:42;2.33;;;1.55;;
22711;SDS011;11523;50.390;8.072;2024-03-23T05:01:08;2.63;;;1.08;;
22711;SDS011;11523;50.390;8.072;2024-03-23T05:03:34;2.72;;;1.83;;
22711;SDS011;11523;50.390;8.072;2024-03-23T05:06:00;1.73;;;1.55;;
22711;SDS011;11523;50.390;8.072;2024-03-23T05:08:25;2.33;;;1.65;;
22711;SDS011;11523;50.390;8.072;2024-03-23T05:10:51;2.22;;;1.70;;
22711;SDS011;11523;50.390;8.072;2024-03-23T05:13:17;1.83;;;1.52;;
22711;SDS011;11523;50.390;8.072;2024-03-23T05:15:43;1.58;;;1.38;;
22711;SDS011;11523;50.390;8.072;2024-03-23T05:18:09;1.48;;;0.80;;
22711;SDS011;11523;50.390;8.072;2024-03-23T05:20:35;1.20;;;0.88;;
22711;SDS011;11523;50.390;8.072;2024-03-23T05:23:01;0.77;;;0.68;;
22711;SDS011;11523;50.390;8.072;2024-03-23T05:25:27;1.48;;;0.90;;
22711;SDS011;11523;50.390;8.072;2024-03-23T05:27:53;2.58;;;0.80;;
22711;SDS011;11523;50.390;8.072;2024-03-23T05:30:19;1.38;;;0.77;;
22711;SDS011;11523;50.390;8.072;2024-03-23T05:32:45;1.35;;;0.77;;
22711;SDS011;11523;50.390;8.072;2024-03-23T05:35:11;1.65;;;0.80;;
22711;SDS011;11523;50.390;8.072;2024-03-23T05:37:37;1.88;;;1.42;;
22711;SDS011;11523;50.390;8.072;2024-03-23T05:40:03;2.08;;;1.02;;
22711;SDS011;11523;50.390;8.072;2024-03-23T05:42:29;1.27;;;0.80;;
22711;SDS011;11523;50.390;8.072;2024-03-23T05:44:55;3.28;;;1.00;;
22711;SDS011;11523;50.390;8.072;2024-03-23T05:47:21;2.40;;;0.98;;
22711;SDS011;11523;50.390;8.072;2024-03-23T05:49:47;2.10;;;0.90;;
22711;SDS011;11523;50.390;8.072;2024-03-23T05:52:13;2.50;;;0.77;;
22711;SDS011;11523;50.390;8.072;2024-03-23T05:54:39;1.20;;;0.93;;
22711;SDS011;11523;50.390;8.072;2024-03-23T05:57:05;3.40;;;1.00;;
22711;SDS011;11523;50.390;8.072;2024-03-23T05:59:32;1.90;;;1.00;;
22711;SDS011;11523;50.390;8.072;2024-03-23T06:02:05;2.78;;;1.25;;
22711;SDS011;11523;50.390;8.072;2024-03-23T06:04:32;2.73;;;0.90;;
22711;SDS011;11523;50.390;8.072;2024-03-23T06:06:57;3.58;;;1.35;;
22711;SDS011;11523;50.390;8.072;2024-03-23T06:09:23;4.93;;;1.20;;
22711;SDS011;11523;50.390;8.072;2024-03-23T06:11:50;2.95;;;1.20;;
22711;SDS011;11523;50.390;8.072;2024-03-23T06:14:16;4.88;;;1.50;;
22711;SDS011;11523;50.390;8.072;2024-03-23T06:16:42;3.78;;;1.55;;
22711;SDS011;11523;50.390;8.072;2024-03-23T06:19:08;4.00;;;1.40;;
22711;SDS011;11523;50.390;8.072;2024-03-23T06:21:34;6.43;;;1.80;;
22711;SDS011;11523;50.390;8.072;2024-03-23T06:24:00;4.00;;;1.52;;
22711;SDS011;11523;50.390;8.072;2024-03-23T06:26:26;4.93;;;1.80;;
22711;SDS011;11523;50.390;8.072;2024-03-23T06:28:52;4.53;;;1.70;;
22711;SDS011;11523;50.390;8.072;2024-03-23T06:31:18;4.57;;;1.77;;
22711;SDS011;11523;50.390;8.072;2024-03-23T06:33:44;6.60;;;2.10;;
22711;SDS011;11523;50.390;8.072;2024-03-23T06:36:10;6.93;;;1.90;;
22711;SDS011;11523;50.390;8.072;2024-03-23T06:38:37;7.20;;;2.13;;
22711;SDS011;11523;50.390;8.072;2024-03-23T06:41:03;4.93;;;1.83;;
22711;SDS011;11523;50.390;8.072;2024-03-23T06:43:29;7.43;;;2.72;;
22711;SDS011;11523;50.390;8.072;2024-03-23T06:45:55;7.10;;;2.88;;
22711;SDS011;11523;50.390;8.072;2024-03-23T06:48:21;7.22;;;2.92;;
22711;SDS011;11523;50.390;8.072;2024-03-23T06:50:47;6.60;;;3.03;;
22711;SDS011;11523;50.390;8.072;2024-03-23T06:53:14;7.20;;;3.05;;
22711;SDS011;11523;50.390;8.072;2024-03-23T06:55:40;6.47;;;3.70;;
22711;SDS011;11523;50.390;8.072;2024-03-23T06:58:06;9.50;;;4.50;;
22711;SDS011;11523;50.390;8.072;2024-03-23T07:00:32;8.15;;;4.47;;
22711;SDS011;11523;50.390;8.072;2024-03-23T07:02:59;9.52;;;4.38;;
22711;SDS011;11523;50.390;8.072;2024-03-23T07:05:25;10.50;;;4.95;;
22711;SDS011;11523;50.390;8.072;2024-03-23T07:07:51;8.40;;;5.07;;
22711;SDS011;11523;50.390;8.072;2024-03-23T07:10:17;10.27;;;5.30;;
22711;SDS011;11523;50.390;8.072;2024-03-23T07:12:43;11.38;;;5.75;;
22711;SDS011;11523;50.390;8.072;2024-03-23T07:15:09;9.88;;;5.25;;
22711;SDS011;11523;50.390;8.072;2024-03-23T07:17:36;11.45;;;4.97;;
22711;SDS011;11523;50.390;8.072;2024-03-23T07:20:02;11.90;;;5.22;;
22711;SDS011;11523;50.390;8.072;2024-03-23T07:22:29;8.35;;;6.05;;
22711;SDS011;11523;50.390;8.072;2024-03-23T07:24:56;8.85;;;5.30;;
22711;SDS011;11523;50.390;8.072;2024-03-23T07:27:22;10.60;;;6.00;;
22711;SDS011;11523;50.390;8.072;2024-03-23T07:29:48;12.95;;;6.97;;
22711;SDS011;11523;50.390;8.072;2024-03-23T07:32:14;11.70;;;6.70;;
22711;SDS011;11523;50.390;8.072;2024-03-23T07:34:41;11.27;;;6.05;;
22711;SDS011;11523;50.390;8.072;2024-03-23T07:37:09;14.68;;;5.97;;
22711;SDS011;11523;50.390;8.072;2024-03-23T07:39:35;10.25;;;5.38;;
22711;SDS011;11523;50.390;8.072;2024-03-23T07:42:07;11.32;;;6.15;;
22711;SDS011;11523;50.390;8.072;2024-03-23T07:44:33;9.10;;;5.10;;
22711;SDS011;11523;50.390;8.072;2024-03-23T07:47:02;13.98;;;6.25;;
22711;SDS011;11523;50.390;8.072;2024-03-23T07:49:28;10.73;;;6.10;;
22711;SDS011;11523;50.390;8.072;2024-03-23T07:51:54;8.43;;;5.25;;
22711;SDS011;11523;50.390;8.072;2024-03-23T07:54:20;9.25;;;4.97;;
22711;SDS011;11523;50.390;8.072;2024-03-23T07:56:46;8.90;;;4.55;;
22711;SDS011;11523;50.390;8.072;2024-03-23T07:59:12;8.73;;;4.50;;
22711;SDS011;11523;50.390;8.072;2024-03-23T08:01:38;10.25;;;4.43;;
22711;SDS011;11523;50.390;8.072;2024-03-23T08:04:04;11.40;;;4.35;;
22711;SDS011;11523;50.390;8.072;2024-03-23T08:06:31;10.48;;;4.45;;
22711;SDS011;11523;50.390;8.072;2024-03-23T08:08:57;8.65;;;3.75;;
22711;SDS011;11523;50.390;8.072;2024-03-23T08:11:27;14.38;;;4.10;;
22711;SDS011;11523;50.390;8.072;2024-03-23T08:13:53;11.38;;;4.07;;
22711;SDS011;11523;50.390;8.072;2024-03-23T08:16:19;11.30;;;3.60;;
22711;SDS011;11523;50.390;8.072;2024-03-23T08:18:45;11.60;;;3.75;;
22711;SDS011;11523;50.390;8.072;2024-03-23T08:21:11;8.43;;;3.53;;
22711;SDS011;11523;50.390;8.072;2024-03-23T08:23:37;10.48;;;4.03;;
22711;SDS011;11523;50.390;8.072;2024-03-23T08:26:04;7.28;;;3.45;;
22711;SDS011;11523;50.390;8.072;2024-03-23T08:28:30;11.88;;;3.97;;
22711;SDS011;11523;50.390;8.072;2024-03-23T08:30:56;15.13;;;3.47;;
22711;SDS011;11523;50.390;8.072;2024-03-23T08:33:22;12.52;;;3.70;;
22711;SDS011;11523;50.390;8.072;2024-03-23T08:36:02;11.98;;;3.97;;
22711;SDS011;11523;50.390;8.072;2024-03-23T08:38:28;7.53;;;3.65;;
22711;SDS011;11523;50.390;8.072;2024-03-23T08:40:57;10.00;;;3.80;;
22711;SDS011;11523;50.390;8.072;2024-03-23T08:43:23;8.85;;;4.35;;
22711;SDS011;11523;50.390;8.072;2024-03-23T08:45:49;10.90;;;4.05;;
22711;SDS011;11523;50.390;8.072;2024-03-23T08:48:16;12.52;;;3.83;;
22711;SDS011;11523;50.390;8.072;2024-03-23T08:50:42;12.90;;;4.88;;
22711;SDS011;11523;50.390;8.072;2024-03-23T08:53:08;12.90;;;4.13;;
22711;SDS011;11523;50.390;8.072;2024-03-23T08:55:34;11.15;;;4.22;;
22711;SDS011;11523;50.390;8.072;2024-03-23T08:58:00;12.65;;;4.22;;
22711;SDS011;11523;50.390;8.072;2024-03-23T09:00:26;12.18;;;4.35;;
22711;SDS011;11523;50.390;8.072;2024-03-23T09:02:52;9.18;;;3.60;;
22711;SDS011;11523;50.390;8.072;2024-03-23T09:05:18;16.33;;;4.53;;
22711;SDS011;11523;50.390;8.072;2024-03-23T09:07:51;13.65;;;4.25;;
22711;SDS011;11523;50.390;8.072;2024-03-23T09:10:17;12.25;;;4.07;;
22711;SDS011;11523;50.390;8.072;2024-03-23T09:12:43;13.68;;;3.80;;
22711;SDS011;11523;50.390;8.072;2024-03-23T09:15:09;12.50;;;4.00;;
22711;SDS011;11523;50.390;8.072;2024-03-23T09:17:35;9.55;;;3.78;;
22711;SDS011;11523;50.390;8.072;2024-03-23T09:20:07;10.57;;;3.50;;
22711;SDS011;11523;50.390;8.072;2024-03-23T09:22:33;11.07;;;2.97;;
22711;SDS011;11523;50.390;8.072;2024-03-23T09:25:00;10.88;;;3.50;;
22711;SDS011;11523;50.390;8.072;2024-03-23T09:27:25;10.10;;;3.05;;
22711;SDS011;11523;50.390;8.072;2024-03-23T09:29:51;9.00;;;3.17;;
22711;SDS011;11523;50.390;8.072;2024-03-23T09:32:17;9.65;;;2.85;;
22711;SDS011;11523;50.390;8.072;2024-03-23T09:34:43;7.03;;;2.50;;
22711;SDS011;11523;50.390;8.072;2024-03-23T09:37:09;6.85;;;2.33;;
22711;SDS011;11523;50.390;8.072;2024-03-23T09:39:36;11.00;;;3.08;;
22711;SDS011;11523;50.390;8.072;2024-03-23T09:42:02;3.58;;;1.50;;
22711;SDS011;11523;50.390;8.072;2024-03-23T09:44:29;6.78;;;2.30;;
22711;SDS011;11523;50.390;8.072;2024-03-23T09:46:55;4.25;;;1.60;;
22711;SDS011;11523;50.390;8.072;2024-03-23T09:49:21;5.63;;;2.15;;
22711;SDS011;11523;50.390;8.072;2024-03-23T09:51:47;5.35;;;1.88;;
22711;SDS011;11523;50.390;8.072;2024-03-23T09:54:13;1.52;;;0.98;;
22711;SDS011;11523;50.390;8.072;2024-03-23T09:56:39;7.78;;;2.15;;
22711;SDS011;11523;50.390;8.072;2024-03-23T09:59:05;6.28;;;1.88;;
22711;SDS011;11523;50.390;8.072;2024-03-23T10:01:31;7.25;;;1.70;;
22711;SDS011;11523;50.390;8.072;2024-03-23T10:03:57;4.93;;;1.83;;
22711;SDS011;11523;50.390;8.072;2024-03-23T10:06:23;5.05;;;1.73;;
22711;SDS011;11523;50.390;8.072;2024-03-23T10:08:50;6.63;;;2.53;;
22711;SDS011;11523;50.390;8.072;2024-03-23T10:11:16;6.25;;;2.13;;
22711;SDS011;11523;50.390;8.072;2024-03-23T10:13:43;6.45;;;2.00;;
22711;SDS011;11523;50.390;8.072;2024-03-23T10:16:11;8.40;;;2.60;;
22711;SDS011;11523;50.390;8.072;2024-03-23T10:18:37;5.80;;;2.30;;
22711;SDS011;11523;50.390;8.072;2024-03-23T10:21:07;6.22;;;3.05;;
22711;SDS011;11523;50.390;8.072;2024-03-23T10:23:37;7.22;;;2.45;;
22711;SDS011;11523;50.390;8.072;2024-03-23T10:26:13;5.68;;;2.45;;
22711;SDS011;11523;50.390;8.072;2024-03-23T10:28:55;9.68;;;2.90;;
22711;SDS011;11523;50.390;8.072;2024-03-23T10:31:26;6.88;;;2.70;;
22711;SDS011;11523;50.390;8.072;2024-03-23T10:33:52;11.15;;;2.47;;
22711;SDS011;11523;50.390;8.072;2024-03-23T10:36:19;8.60;;;3.03;;
22711;SDS011;11523;50.390;8.072;2024-03-23T10:38:45;7.22;;;2.70;;
22711;SDS011;11523;50.390;8.072;2024-03-23T10:41:12;6.18;;;2.40;;
22711;SDS011;11523;50.390;8.072;2024-03-23T10:43:38;6.50;;;2.50;;
22711;SDS011;11523;50.390;8.072;2024-03-23T10:46:04;11.23;;;2.90;;
22711;SDS011;11523;50.390;8.072;2024-03-23T10:48:31;6.03;;;2.65;;
22711;SDS011;11523;50.390;8.072;2024-03-23T10:50:57;9.43;;;2.65;;
22711;SDS011;11523;50.390;8.072;2024-03-23T10:53:25;7.70;;;2.60;;
22711;SDS011;11523;50.390;8.072;2024-03-23T10:55:51;8.88;;;2.78;;
22711;SDS011;11523;50.390;8.072;2024-03-23T10:58:18;7.00;;;2.45;;
22711;SDS011;11523;50.390;8.072;2024-03-23T11:00:47;6.30;;;2.35;;
22711;SDS011;11523;50.390;8.072;2024-03-23T11:05:58;7.75;;;2.55;;
22711;SDS011;11523;50.390;8.072;2024-03-23T11:08:31;6.53;;;1.80;;
22711;SDS011;11523;50.390;8.072;2024-03-23T11:13:42;5.72;;;2.35;;
22711;SDS011;11523;50.390;8.072;2024-03-23T11:16:15;5.10;;;1.90;;
22711;SDS011;11523;50.390;8.072;2024-03-23T11:18:41;8.40;;;2.00;;
22711;SDS011;11523;50.390;8.072;2024-03-23T11:21:08;6.90;;;2.58;;
22711;SDS011;11523;50.390;8.072;2024-03-23T11:23:34;4.20;;;1.70;;
22711;SDS011;11523;50.390;8.072;2024-03-23T11:26:00;2.00;;;1.25;;
22711;SDS011;11523;50.390;8.072;2024-03-23T11:28:26;5.75;;;2.47;;
22711;SDS011;11523;50.390;8.072;2024-03-23T11:30:52;5.43;;;2.30;;
22711;SDS011;11523;50.390;8.072;2024-03-23T11:33:18;7.32;;;3.42;;
22711;SDS011;11523;50.390;8.072;2024-03-23T11:35:44;9.80;;;3.60;;
22711;SDS011;11523;50.390;8.072;2024-03-23T11:38:14;9.85;;;2.72;;
22711;SDS011;11523;50.390;8.072;2024-03-23T11:40:41;5.15;;;3.05;;
22711;SDS011;11523;50.390;8.072;2024-03-23T11:43:14;7.68;;;3.05;;
22711;SDS011;11523;50.390;8.072;2024-03-23T11:45:44;7.53;;;3.03;;
22711;SDS011;11523;50.390;8.072;2024-03-23T11:48:11;8.73;;;2.90;;
22711;SDS011;11523;50.390;8.072;2024-03-23T11:50:38;9.93;;;3.58;;
22711;SDS011;11523;50.390;8.072;2024-03-23T11:53:06;5.43;;;2.45;;
22711;SDS011;11523;50.390;8.072;2024-03-23T11:55:39;8.38;;;2.60;;
22711;SDS011;11523;50.390;8.072;2024-03-23T11:58:05;2.78;;;1.40;;
22711;SDS011;11523;50.390;8.072;2024-03-23T12:00:31;4.13;;;1.20;;
22711;SDS011;11523;50.390;8.072;2024-03-23T12:03:01;1.92;;;0.77;;
22711;SDS011;11523;50.390;8.072;2024-03-23T12:05:27;1.23;;;0.70;;
22711;SDS011;11523;50.390;8.072;2024-03-23T12:07:54;2.67;;;0.63;;
22711;SDS011;11523;50.390;8.072;2024-03-23T12:10:27;0.77;;;0.60;;
22711;SDS011;11523;50.390;8.072;2024-03-23T12:13:00;1.30;;;0.57;;
22711;SDS011;11523;50.390;8.072;2024-03-23T12:15:26;1.25;;;0.82;;
22711;SDS011;11523;50.390;8.072;2024-03-23T12:18:05;1.95;;;0.88;;
22711;SDS011;11523;50.390;8.072;2024-03-23T12:20:38;1.90;;;0.70;;
22711;SDS011;11523;50.390;8.072;2024-03-23T12:23:08;0.95;;;0.60;;
22711;SDS011;11523;50.390;8.072;2024-03-23T12:25:35;2.17;;;0.80;;
22711;SDS011;11523;50.390;8.072;2024-03-23T12:28:01;3.17;;;0.90;;
22711;SDS011;11523;50.390;8.072;2024-03-23T12:30:27;0.77;;;0.65;;
22711;SDS011;11523;50.390;8.072;2024-03-23T12:32:53;1.15;;;0.68;;
22711;SDS011;11523;50.390;8.072;2024-03-23T12:35:26;1.30;;;0.73;;
22711;SDS011;11523;50.390;8.072;2024-03-23T12:37:52;0.63;;;0.63;;
22711;SDS011;11523;50.390;8.072;2024-03-23T12:40:18;1.42;;;0.80;;
22711;SDS011;11523;50.390;8.072;2024-03-23T12:42:44;4.18;;;0.70;;
22711;SDS011;11523;50.390;8.072;2024-03-23T12:45:10;1.73;;;0.82;;
22711;SDS011;11523;50.390;8.072;2024-03-23T12:47:36;1.38;;;0.80;;
22711;SDS011;11523;50.390;8.072;2024-03-23T12:50:02;1.92;;;0.70;;
22711;SDS011;11523;50.390;8.072;2024-03-23T12:52:28;1.15;;;0.90;;
22711;SDS011;11523;50.390;8.072;2024-03-23T12:54:57;3.30;;;0.68;;
22711;SDS011;11523;50.390;8.072;2024-03-23T12:57:26;1.55;;;0.88;;
22711;SDS011;11523;50.390;8.072;2024-03-23T12:59:52;1.38;;;0.60;;
22711;SDS011;11523;50.390;8.072;2024-03-23T13:02:22;1.00;;;0.90;;
22711;SDS011;11523;50.390;8.072;2024-03-23T13:04:54;1.70;;;0.90;;
22711;SDS011;11523;50.390;8.072;2024-03-23T13:07:21;1.55;;;1.02;;
22711;SDS011;11523;50.390;8.072;2024-03-23T13:09:49;2.45;;;1.33;;
22711;SDS011;11523;50.390;8.072;2024-03-23T13:12:16;2.92;;;1.30;;
22711;SDS011;11523;50.390;8.072;2024-03-23T13:14:43;3.50;;;1.27;;
22711;SDS011;11523;50.390;8.072;2024-03-23T13:17:09;1.45;;;1.10;;
22711;SDS011;11523;50.390;8.072;2024-03-23T13:19:35;3.83;;;1.40;;
22711;SDS011;11523;50.390;8.072;2024-03-23T13:22:02;2.38;;;1.20;;
22711;SDS011;11523;50.390;8.072;2024-03-23T13:24:29;1.52;;;1.08;;
22711;SDS011;11523;50.390;8.072;2024-03-23T13:26:55;1.52;;;1.13;;
22711;SDS011;11523;50.390;8.072;2024-03-23T13:29:22;2.33;;;1.05;;
22711;SDS011;11523;50.390;8.072;2024-03-23T13:31:49;2.55;;;1.40;;
22711;SDS011;11523;50.390;8.072;2024-03-23T13:34:15;2.35;;;1.27;;
22711;SDS011;11523;50.390;8.072;2024-03-23T13:36:41;3.25;;;1.40;;
22711;SDS011;11523;50.390;8.072;2024-03-23T13:39:08;3.10;;;1.40;;
22711;SDS011;11523;50.390;8.072;2024-03-23T13:41:39;1.77;;;1.50;;
22711;SDS011;11523;50.390;8.072;2024-03-23T13:44:06;1.70;;;1.23;;
22711;SDS011;11523;50.390;8.072;2024-03-23T13:46:32;2.05;;;1.55;;
22711;SDS011;11523;50.390;8.072;2024-03-23T13:48:59;1.75;;;1.13;;
22711;SDS011;11523;50.390;8.072;2024-03-23T13:51:25;3.75;;;2.00;;
22711;SDS011;11523;50.390;8.072;2024-03-23T13:53:54;1.55;;;1.10;;
22711;SDS011;11523;50.390;8.072;2024-03-23T13:56:25;3.83;;;1.42;;
22711;SDS011;11523;50.390;8.072;2024-03-23T13:58:52;2.17;;;1.20;;
22711;SDS011;11523;50.390;8.072;2024-03-23T14:01:18;3.10;;;1.30;;
22711;SDS011;11523;50.390;8.072;2024-03-23T14:03:44;2.65;;;1.20;;
22711;SDS011;11523;50.390;8.072;2024-03-23T14:06:10;1.52;;;1.00;;
22711;SDS011;11523;50.390;8.072;2024-03-23T14:08:37;3.28;;;1.00;;
22711;SDS011;11523;50.390;8.072;2024-03-23T14:11:06;1.15;;;0.85;;
22711;SDS011;11523;50.390;8.072;2024-03-23T14:13:33;2.63;;;1.00;;
22711;SDS011;11523;50.390;8.072;2024-03-23T14:16:00;1.50;;;0.95;;
22711;SDS011;11523;50.390;8.072;2024-03-23T14:18:26;4.25;;;1.67;;
22711;SDS011;11523;50.390;8.072;2024-03-23T14:20:55;4.95;;;1.77;;
22711;SDS011;11523;50.390;8.072;2024-03-23T14:23:23;1.33;;;1.00;;
22711;SDS011;11523;50.390;8.072;2024-03-23T14:25:49;1.63;;;1.20;;
22711;SDS011;11523;50.390;8.072;2024-03-23T14:28:15;2.80;;;1.30;;
22711;SDS011;11523;50.390;8.072;2024-03-23T14:30:49;3.15;;;1.17;;
22711;SDS011;11523;50.390;8.072;2024-03-23T14:33:15;2.35;;;1.40;;
22711;SDS011;11523;50.390;8.072;2024-03-23T14:35:41;3.70;;;1.02;;
22711;SDS011;11523;50.390;8.072;2024-03-23T14:38:07;1.23;;;0.77;;
22711;SDS011;11523;50.390;8.072;2024-03-23T14:40:33;2.70;;;1.00;;
22711;SDS011;11523;50.390;8.072;2024-03-23T14:42:59;3.50;;;1.00;;
22711;SDS011;11523;50.390;8.072;2024-03-23T14:45:25;1.50;;;0.93;;
22711;SDS011;11523;50.390;8.072;2024-03-23T14:47:51;2.45;;;0.93;;
22711;SDS011;11523;50.390;8.072;2024-03-23T14:50:17;2.67;;;1.08;;
22711;SDS011;11523;50.390;8.072;2024-03-23T14:52:46;1.40;;;0.80;;
22711;SDS011;11523;50.390;8.072;2024-03-23T14:55:12;1.88;;;1.00;;
22711;SDS011;11523;50.390;8.072;2024-03-23T14:57:38;3.15;;;1.10;;
22711;SDS011;11523;50.390;8.072;2024-03-23T15:00:06;2.92;;;1.50;;
22711;SDS011;11523;50.390;8.072;2024-03-23T15:02:32;2.95;;;1.63;;
22711;SDS011;11523;50.390;8.072;2024-03-23T15:04:59;4.55;;;1.70;;
22711;SDS011;11523;50.390;8.072;2024-03-23T15:07:25;2.47;;;1.27;;
22711;SDS011;11523;50.390;8.072;2024-03-23T15:09:52;2.15;;;1.30;;
22711;SDS011;11523;50.390;8.072;2024-03-23T15:12:18;5.30;;;1.27;;
22711;SDS011;11523;50.390;8.072;2024-03-23T15:14:46;1.40;;;1.05;;
22711;SDS011;11523;50.390;8.072;2024-03-23T15:17:12;2.63;;;1.17;;
22711;SDS011;11523;50.390;8.072;2024-03-23T15:19:38;2.90;;;1.20;;
22711;SDS011;11523;50.390;8.072;2024-03-23T15:22:05;1.42;;;0.95;;
22711;SDS011;11523;50.390;8.072;2024-03-23T15:24:30;2.33;;;1.08;;
22711;SDS011;11523;50.390;8.072;2024-03-23T15:26:56;3.38;;;1.25;;
22711;SDS011;11523;50.390;8.072;2024-03-23T15:29:22;2.25;;;1.15;;
22711;SDS011;11523;50.390;8.072;2024-03-23T15:31:48;1.88;;;0.90;;
22711;SDS011;11523;50.390;8.072;2024-03-23T15:34:17;1.63;;;0.80;;
22711;SDS011;11523;50.390;8.072;2024-03-23T15:36:44;2.97;;;1.00;;
22711;SDS011;11523;50.390;8.072;2024-03-23T15:39:10;3.90;;;1.05;;